Time;durP1;ratioP1;P1;durP2;ratioP2;P2;SDS_P1;SDS_P2;PMS_P1;PMS_P2;Temp;Humidity;BMP_temperature;BMP_pressure;BME280_temperature;BME280_humidity;BME280_pressure;Samples;Min_cycle;Max_cycle;Signal;HPM_P1;HPM_P2
2022/11/27 00:00:03;;;;;;;27.30;4.85;;;5.40;99.90;;;;;;5045771;28;20510;-51
2022/11/27 00:02:29;;;;;;;28.17;4.93;;;5.40;99.90;;;;;;5043223;28;20084;-49
2022/11/27 00:04:54;;;;;;;25.45;5.38;;;5.40;99.90;;;;;;5046168;28;20080;-60
2022/11/27 00:07:20;;;;;;;26.85;5.28;;;5.40;99.90;;;;;;5044768;28;20037;-57
2022/11/27 00:09:45;;;;;;;31.25;5.43;;;5.50;99.90;;;;;;5011561;28;20120;-51
2022/11/27 00:12:11;;;;;;;32.08;5.57;;;5.50;99.90;;;;;;5044549;28;20406;-49
2022/11/27 00:14:37;;;;;;;33.38;6.20;;;5.50;99.90;;;;;;5044230;28;20048;-50
2022/11/27 00:17:04;;;;;;;27.92;5.53;;;5.50;99.90;;;;;;5028676;28;20491;-54
2022/11/27 00:19:29;;;;;;;31.02;6.13;;;5.50;99.90;;;;;;5030413;28;20056;-50
2022/11/27 00:21:55;;;;;;;24.23;4.85;;;5.50;99.90;;;;;;5050461;28;20405;-50
2022/11/27 00:24:20;;;;;;;27.75;5.10;;;5.60;99.90;;;;;;5047948;28;20099;-47
2022/11/27 00:26:48;;;;;;;23.60;5.05;;;5.60;99.90;;;;;;5027609;28;20041;-53
2022/11/27 00:29:14;;;;;;;27.92;5.70;;;5.60;99.90;;;;;;5028522;28;20831;-47
2022/11/27 00:31:40;;;;;;;40.60;6.95;;;5.60;99.90;;;;;;5031097;28;20045;-62
2022/11/27 00:34:07;;;;;;;33.25;5.45;;;5.50;99.90;;;;;;5031294;28;20067;-57
2022/11/27 00:36:34;;;;;;;20.05;4.43;;;5.60;99.90;;;;;;5048334;28;20040;-52
2022/11/27 00:39:00;;;;;;;28.45;5.70;;;5.60;99.90;;;;;;5049892;28;20076;-51
2022/11/27 00:41:28;;;;;;;33.08;6.50;;;5.60;99.90;;;;;;5047797;28;20089;-57
2022/11/27 00:43:55;;;;;;;20.50;5.38;;;5.60;99.90;;;;;;5049404;28;20134;-52
2022/11/27 00:46:23;;;;;;;29.45;5.72;;;5.60;99.90;;;;;;5048395;28;20083;-60
2022/11/27 00:48:49;;;;;;;26.45;5.95;;;5.60;99.90;;;;;;5030492;28;20049;-55
2022/11/27 00:51:19;;;;;;;27.92;5.50;;;5.60;99.90;;;;;;5049481;28;20496;-51
2022/11/27 00:53:46;;;;;;;25.60;5.65;;;5.50;99.90;;;;;;5029820;28;20056;-54
2022/11/27 00:56:23;;;;;;;28.85;6.22;;;5.60;99.90;;;;;;5049327;28;20411;-49
2022/11/27 00:58:50;;;;;;;25.45;5.72;;;5.50;99.90;;;;;;5029544;28;20047;-65
2022/11/27 01:01:18;;;;;;;29.80;5.68;;;5.50;99.90;;;;;;5048023;28;20383;-57
2022/11/27 01:03:45;;;;;;;24.33;6.03;;;5.50;99.90;;;;;;5048082;28;20848;-47
2022/11/27 01:06:11;;;;;;;35.63;5.63;;;5.40;99.90;;;;;;5048512;28;20133;-62
2022/11/27 01:08:37;;;;;;;29.52;6.00;;;5.40;99.90;;;;;;5030503;28;20477;-58
2022/11/27 01:11:03;;;;;;;27.98;5.70;;;5.50;99.90;;;;;;5038694;28;20120;-58
2022/11/27 01:13:31;;;;;;;24.85;5.63;;;5.50;99.90;;;;;;5014330;28;20634;-61
2022/11/27 01:16:02;;;;;;;36.22;6.18;;;5.50;99.90;;;;;;5047432;28;20116;-47
2022/11/27 01:18:28;;;;;;;20.65;5.28;;;5.50;99.90;;;;;;5049213;28;20045;-55
2022/11/27 01:20:54;;;;;;;25.38;6.15;;;5.40;99.90;;;;;;5048397;28;20048;-51
2022/11/27 01:23:22;;;;;;;33.40;5.97;;;5.40;99.90;;;;;;5048877;28;20060;-61
2022/11/27 01:25:48;;;;;;;21.42;6.45;;;5.30;99.90;;;;;;5030577;28;20053;-48
2022/11/27 01:28:14;;;;;;;27.15;5.50;;;5.30;99.90;;;;;;5047452;28;20495;-58
2022/11/27 01:30:40;;;;;;;22.80;5.38;;;5.20;99.90;;;;;;5029631;28;20128;-47
2022/11/27 01:33:06;;;;;;;25.42;5.63;;;5.20;99.90;;;;;;5059788;28;20060;-63
2022/11/27 01:35:32;;;;;;;27.48;5.40;;;5.10;99.90;;;;;;5060599;28;20056;-61
2022/11/27 01:37:58;;;;;;;23.58;5.47;;;5.10;99.90;;;;;;5060874;28;20051;-52
2022/11/27 01:40:24;;;;;;;29.00;5.63;;;5.00;99.90;;;;;;5066383;28;20483;-51
2022/11/27 01:42:50;;;;;;;27.80;4.72;;;5.00;99.90;;;;;;5067420;28;20889;-49
2022/11/27 01:45:17;;;;;;;23.17;5.60;;;4.90;99.90;;;;;;5067480;28;20063;-55
2022/11/27 01:47:48;;;;;;;24.55;6.53;;;4.90;99.90;;;;;;5066865;28;20071;-60
2022/11/27 01:50:22;;;;;;;26.08;5.40;;;4.90;99.90;;;;;;5048928;28;20048;-50
2022/11/27 01:52:51;;;;;;;26.65;5.80;;;4.80;99.90;;;;;;5067988;28;20052;-53
2022/11/27 01:55:27;;;;;;;15.57;5.05;;;4.80;99.90;;;;;;5049580;28;20119;-58
2022/11/27 01:58:03;;;;;;;25.67;5.43;;;4.80;99.90;;;;;;5068281;28;20421;-52
2022/11/27 02:00:30;;;;;;;15.38;4.70;;;4.80;99.90;;;;;;5068124;28;20041;-49
2022/11/27 02:02:55;;;;;;;20.20;5.55;;;4.80;99.90;;;;;;5065482;28;20638;-49
2022/11/27 02:05:24;;;;;;;22.40;5.10;;;4.70;99.90;;;;;;5066972;28;20147;-51
2022/11/27 02:07:52;;;;;;;19.27;5.35;;;4.70;99.90;;;;;;5065409;28;20486;-53
2022/11/27 02:10:20;;;;;;;20.10;5.25;;;4.70;99.90;;;;;;5067829;28;20048;-51
2022/11/27 02:12:49;;;;;;;17.80;4.70;;;4.70;99.90;;;;;;5066656;28;20054;-51
2022/11/27 02:18:58;;;;;;;21.65;6.05;;;4.60;99.90;;;;;;5067437;23;20057;-66
2022/11/27 02:21:45;;;;;;;14.60;5.90;;;4.70;99.90;;;;;;5070009;28;20037;-66
2022/11/27 02:24:26;;;;;;;20.17;5.32;;;4.70;99.90;;;;;;5066942;28;20040;-66
2022/11/27 02:27:01;;;;;;;;;;;4.70;99.90;;;;;;5069919;28;20049;-66
2022/11/27 02:29:31;;;;;;;23.15;5.15;;;4.60;99.90;;;;;;5051201;28;19952;-65
2022/11/27 02:32:20;;;;;;;25.80;5.03;;;4.70;99.90;;;;;;5034659;28;20097;-66
2022/11/27 02:35:00;;;;;;;22.65;6.13;;;4.60;99.90;;;;;;5069210;28;20083;-65
2022/11/27 02:37:47;;;;;;;23.67;5.22;;;4.60;99.90;;;;;;5051217;28;20084;-66
2022/11/27 02:40:30;;;;;;;18.48;4.53;;;4.60;99.90;;;;;;5055824;28;20048;-66
2022/11/27 02:43:09;;;;;;;17.08;4.90;;;4.60;99.90;;;;;;5069048;28;20051;-66
2022/11/27 02:45:42;;;;;;;17.15;5.05;;;4.60;99.90;;;;;;5068387;28;20217;-66
2022/11/27 02:48:11;;;;;;;17.70;5.35;;;4.60;99.90;;;;;;5051981;28;20041;-66
2022/11/27 02:50:40;;;;;;;25.48;5.75;;;4.60;99.90;;;;;;5068538;28;20109;-66
2022/11/27 02:53:14;;;;;;;27.60;5.88;;;4.60;99.90;;;;;;5051519;28;20048;-66
2022/11/27 02:55:42;;;;;;;22.65;5.60;;;4.60;99.90;;;;;;5068573;28;20200;-66
2022/11/27 02:58:19;;;;;;;22.67;4.32;;;4.60;99.90;;;;;;5051244;28;20604;-66
2022/11/27 03:00:46;;;;;;;20.30;5.20;;;4.60;99.90;;;;;;5069351;28;20063;-66
2022/11/27 03:03:15;;;;;;;28.98;5.35;;;4.60;99.90;;;;;;5068369;28;20044;-66
2022/11/27 03:05:44;;;;;;;22.90;5.25;;;4.60;99.90;;;;;;5068958;28;20400;-66
2022/11/27 03:08:32;;;;;;;23.85;5.35;;;4.60;99.90;;;;;;5068363;28;20059;-66
2022/11/27 03:11:04;;;;;;;17.15;5.28;;;4.50;99.90;;;;;;5065954;28;20482;-66
2022/11/27 03:13:36;;;;;;;22.80;4.70;;;4.50;99.90;;;;;;5069568;28;20083;-66
2022/11/27 03:16:24;;;;;;;21.00;5.20;;;4.60;99.90;;;;;;5049679;28;20393;-66
2022/11/27 03:19:15;;;;;;;24.92;5.65;;;4.50;99.90;;;;;;5068361;28;20155;-66
2022/11/27 03:21:50;;;;;;;18.83;5.22;;;4.50;99.90;;;;;;5056803;28;20048;-65
2022/11/27 03:24:16;;;;;;;18.40;4.65;;;4.40;99.90;;;;;;5050114;28;20044;-66
2022/11/27 03:26:42;;;;;;;26.92;5.82;;;4.40;99.90;;;;;;5068894;28;20043;-66
2022/11/27 03:29:12;;;;;;;26.00;4.53;;;4.50;99.90;;;;;;5050009;28;20403;-66
2022/11/27 03:31:38;;;;;;;15.10;4.70;;;4.40;99.90;;;;;;5068752;28;20047;-66
2022/11/27 03:34:04;;;;;;;17.10;6.22;;;4.40;99.90;;;;;;5068001;28;20106;-66
2022/11/27 03:36:30;;;;;;;17.27;4.80;;;4.40;99.90;;;;;;5050488;28;20040;-66
2022/11/27 03:38:56;;;;;;;19.98;4.40;;;4.50;99.90;;;;;;5049986;28;20157;-66
2022/11/27 03:41:50;;;;;;;19.85;5.05;;;4.50;99.90;;;;;;5050111;28;20049;-66
2022/11/27 03:44:30;;;;;;;16.75;4.45;;;4.50;99.90;;;;;;5069044;28;20060;-66
2022/11/27 03:47:19;;;;;;;14.40;3.58;;;4.50;99.90;;;;;;5049359;28;20489;-65
2022/11/27 03:50:19;;;;;;;9.83;3.47;;;4.50;99.90;;;;;;5067776;28;20048;-66
2022/11/27 03:53:17;;;;;;;26.70;4.88;;;4.60;99.90;;;;;;5068524;28;20123;-66
2022/11/27 03:55:59;;;;;;;9.18;3.50;;;4.60;99.90;;;;;;4994803;28;20521;-65
2022/11/27 03:58:36;;;;;;;14.38;5.13;;;4.60;99.90;;;;;;5067807;28;20084;-66
2022/11/27 04:01:06;;;;;;;13.18;3.72;;;4.70;99.90;;;;;;5067960;28;20110;-66
2022/11/27 04:03:32;;;;;;;8.27;3.13;;;4.70;99.90;;;;;;5049427;28;20050;-66
2022/11/27 04:05:58;;;;;;;9.52;3.70;;;4.70;99.90;;;;;;5050474;28;20036;-65
2022/11/27 04:08:24;;;;;;;14.90;3.55;;;4.70;99.90;;;;;;5049437;28;20123;-66
2022/11/27 04:10:50;;;;;;;12.10;3.42;;;4.70;99.90;;;;;;5049596;28;20053;-66
2022/11/27 04:13:16;;;;;;;14.80;3.80;;;4.70;99.90;;;;;;5067915;28;20040;-65
2022/11/27 04:15:43;;;;;;;17.08;3.97;;;4.60;99.90;;;;;;5067665;28;20453;-65
2022/11/27 04:18:09;;;;;;;26.08;4.55;;;4.60;99.90;;;;;;5067110;28;20266;-66
2022/11/27 04:20:35;;;;;;;13.63;4.20;;;4.60;99.90;;;;;;5065740;28;20064;-65
2022/11/27 04:23:00;;;;;;;15.55;4.25;;;4.60;99.90;;;;;;5066668;28;20088;-66
2022/11/27 04:25:26;;;;;;;16.95;4.15;;;4.60;99.90;;;;;;5031675;28;20096;-66
2022/11/27 04:27:52;;;;;;;22.38;4.85;;;4.60;99.90;;;;;;5066313;28;20028;-65
2022/11/27 04:30:18;;;;;;;17.58;4.90;;;4.60;99.90;;;;;;5048915;28;20102;-66
2022/11/27 04:32:44;;;;;;;21.95;3.97;;;4.60;99.90;;;;;;5047727;28;20045;-65
2022/11/27 04:35:10;;;;;;;14.73;4.22;;;4.60;99.90;;;;;;5048796;28;20080;-66
2022/11/27 04:37:36;;;;;;;12.25;3.38;;;4.60;99.90;;;;;;5066416;28;20112;-66
2022/11/27 04:40:03;;;;;;;19.13;4.00;;;4.70;99.90;;;;;;5066422;28;20055;-66
2022/11/27 04:42:28;;;;;;;22.33;4.20;;;4.60;99.90;;;;;;5065827;28;20114;-65
2022/11/27 04:44:54;;;;;;;20.70;5.10;;;4.70;99.90;;;;;;5066341;28;20136;-66
2022/11/27 04:47:20;;;;;;;21.38;4.32;;;4.70;99.90;;;;;;5066199;28;20470;-66
2022/11/27 04:49:46;;;;;;;11.35;4.00;;;4.70;99.90;;;;;;5066341;28;20090;-66
2022/11/27 04:52:12;;;;;;;17.02;5.13;;;4.70;99.90;;;;;;5066485;28;20059;-66
2022/11/27 04:54:38;;;;;;;19.33;4.97;;;4.70;99.90;;;;;;5065603;28;20048;-66
2022/11/27 04:57:04;;;;;;;19.75;4.45;;;4.70;99.90;;;;;;5048655;28;20063;-66
2022/11/27 04:59:29;;;;;;;18.80;4.38;;;4.70;99.90;;;;;;5065875;28;20041;-66
2022/11/27 05:01:55;;;;;;;20.67;3.78;;;4.80;99.90;;;;;;5065982;28;20048;-66
2022/11/27 05:04:22;;;;;;;18.33;4.55;;;4.80;99.90;;;;;;5067036;28;20059;-65
2022/11/27 05:06:48;;;;;;;21.52;3.90;;;4.80;99.90;;;;;;5070258;28;20044;-66
2022/11/27 05:09:16;;;;;;;19.08;4.38;;;4.70;99.90;;;;;;5051395;28;20044;-66
2022/11/27 05:11:41;;;;;;;24.08;5.15;;;4.80;99.90;;;;;;5051269;28;20084;-66
2022/11/27 05:14:21;;;;;;;14.88;4.07;;;4.80;99.90;;;;;;5051759;28;20091;-66
2022/11/27 05:16:53;;;;;;;18.60;4.33;;;4.80;99.90;;;;;;5052872;28;20509;-66
2022/11/27 05:19:20;;;;;;;12.85;4.00;;;4.80;99.90;;;;;;5069686;28;20784;-66
2022/11/27 05:21:48;;;;;;;28.67;4.50;;;4.80;99.90;;;;;;5069101;28;20033;-66
2022/11/27 05:24:15;;;;;;;18.02;4.20;;;4.80;99.90;;;;;;5049844;28;20464;-65
2022/11/27 05:26:41;;;;;;;15.55;4.72;;;4.80;99.90;;;;;;5067539;28;20561;-66
2022/11/27 05:29:08;;;;;;;18.20;4.60;;;4.90;99.90;;;;;;5049539;28;20044;-66
2022/11/27 05:31:34;;;;;;;19.38;4.15;;;4.80;99.90;;;;;;5050780;28;20047;-66
2022/11/27 05:34:02;;;;;;;19.63;4.53;;;4.90;99.90;;;;;;5049716;28;20055;-66
2022/11/27 05:36:28;;;;;;;17.48;4.18;;;4.90;99.90;;;;;;5069553;28;20043;-65
2022/11/27 05:38:54;;;;;;;9.77;3.60;;;4.80;99.90;;;;;;5069039;28;20449;-65
2022/11/27 05:41:20;;;;;;;13.90;3.45;;;4.90;99.90;;;;;;5069051;28;20112;-65
2022/11/27 05:43:46;;;;;;;23.35;5.10;;;4.90;99.90;;;;;;5068989;28;20417;-65
2022/11/27 05:46:13;;;;;;;16.25;4.00;;;4.90;99.90;;;;;;5050702;28;20041;-65
2022/11/27 05:48:39;;;;;;;13.07;4.80;;;4.90;99.90;;;;;;5069278;28;20409;-65
2022/11/27 05:51:06;;;;;;;17.38;4.03;;;4.90;99.90;;;;;;5049990;28;20053;-65
2022/11/27 05:53:33;;;;;;;6.00;3.30;;;4.80;99.90;;;;;;5034924;28;20048;-65
2022/11/27 05:56:18;;;;;;;16.63;3.97;;;4.90;99.90;;;;;;5063878;28;20405;-65
2022/11/27 05:58:45;;;;;;;21.95;4.85;;;4.90;99.90;;;;;;5051036;28;20052;-65
2022/11/27 06:01:14;;;;;;;13.98;4.28;;;4.90;99.90;;;;;;5050601;28;20041;-65
2022/11/27 06:03:39;;;;;;;19.30;3.80;;;4.90;99.90;;;;;;5049793;28;20687;-65
2022/11/27 06:06:09;;;;;;;10.88;3.80;;;4.80;99.90;;;;;;5067435;28;20044;-65
2022/11/27 06:08:36;;;;;;;8.25;3.10;;;4.80;99.90;;;;;;5063637;28;20052;-65
2022/11/27 06:11:09;;;;;;;18.27;4.10;;;4.80;99.90;;;;;;5069527;28;20037;-65
2022/11/27 06:13:36;;;;;;;17.90;3.75;;;4.80;99.90;;;;;;5068807;28;20050;-65
2022/11/27 06:16:07;;;;;;;14.20;3.60;;;4.80;99.90;;;;;;5068410;28;20448;-65
2022/11/27 06:18:33;;;;;;;15.07;3.50;;;4.70;99.90;;;;;;5068882;28;20528;-65
2022/11/27 06:20:59;;;;;;;18.27;4.90;;;4.70;99.90;;;;;;5067860;28;20082;-65
2022/11/27 06:23:25;;;;;;;17.40;4.65;;;4.70;99.90;;;;;;5069009;28;20052;-65
2022/11/27 06:25:51;;;;;;;13.13;3.90;;;4.60;99.90;;;;;;5049845;28;20044;-65
2022/11/27 06:28:16;;;;;;;11.55;4.22;;;4.60;99.90;;;;;;5050307;28;20387;-65
2022/11/27 06:30:42;;;;;;;13.18;3.72;;;4.60;99.90;;;;;;5049243;28;20036;-65
2022/11/27 06:33:09;;;;;;;16.65;3.92;;;4.60;99.90;;;;;;5068384;28;20083;-65
2022/11/27 06:35:35;;;;;;;17.10;4.00;;;4.60;99.90;;;;;;5068392;28;20565;-65
2022/11/27 06:38:01;;;;;;;14.02;3.80;;;4.60;99.90;;;;;;5050140;28;20103;-65
2022/11/27 06:40:26;;;;;;;17.35;4.40;;;4.60;99.90;;;;;;5065339;28;20051;-65
2022/11/27 06:42:52;;;;;;;21.25;4.97;;;4.60;99.90;;;;;;5067325;28;20028;-65
2022/11/27 06:45:18;;;;;;;17.50;3.90;;;4.50;99.90;;;;;;5068151;28;20048;-65
2022/11/27 06:47:44;;;;;;;16.52;3.97;;;4.50;99.90;;;;;;5067187;28;20040;-65
2022/11/27 06:50:12;;;;;;;17.80;4.18;;;4.40;99.90;;;;;;5068200;28;20489;-65
2022/11/27 06:52:37;;;;;;;12.35;3.60;;;4.40;99.90;;;;;;5048843;28;20507;-65
2022/11/27 06:55:03;;;;;;;7.93;3.58;;;4.40;99.90;;;;;;5048623;28;20089;-65
2022/11/27 06:57:29;;;;;;;18.85;4.18;;;4.40;99.90;;;;;;5067804;28;20509;-65
2022/11/27 06:59:54;;;;;;;13.00;3.80;;;4.40;99.90;;;;;;5049023;28;20393;-65
2022/11/27 07:02:21;;;;;;;15.45;4.13;;;4.40;99.90;;;;;;5048129;28;20119;-65
2022/11/27 07:04:47;;;;;;;17.10;4.15;;;4.40;99.90;;;;;;5066874;28;20041;-65
2022/11/27 07:07:14;;;;;;;12.82;3.70;;;4.50;99.90;;;;;;5050179;28;20501;-65
2022/11/27 07:09:40;;;;;;;10.63;4.03;;;4.50;99.90;;;;;;5032571;28;20576;-66
2022/11/27 07:12:07;;;;;;;13.85;4.05;;;4.50;99.90;;;;;;5067665;28;20048;-65
2022/11/27 07:14:32;;;;;;;15.27;3.80;;;4.50;99.90;;;;;;5067063;28;20048;-65
2022/11/27 07:16:58;;;;;;;15.88;4.28;;;4.50;99.90;;;;;;5048810;28;20056;-65
2022/11/27 07:19:24;;;;;;;12.23;4.00;;;4.60;99.90;;;;;;5067698;28;20049;-65
2022/11/27 07:21:50;;;;;;;11.80;3.55;;;4.60;99.90;;;;;;5066920;28;20490;-65
2022/11/27 07:24:16;;;;;;;16.65;4.10;;;4.60;99.90;;;;;;5067451;28;20520;-65
2022/11/27 07:26:41;;;;;;;16.85;4.35;;;4.60;99.90;;;;;;5066336;28;20398;-65
2022/11/27 07:29:07;;;;;;;11.40;3.53;;;4.60;99.90;;;;;;5049496;28;20094;-65
2022/11/27 07:31:33;;;;;;;9.23;3.55;;;4.60;99.90;;;;;;5047525;28;20048;-65
2022/11/27 07:33:59;;;;;;;16.80;4.30;;;4.60;99.90;;;;;;5067235;28;20137;-65
2022/11/27 07:36:28;;;;;;;15.60;4.50;;;4.60;99.90;;;;;;5067516;28;20037;-65
2022/11/27 07:38:54;;;;;;;14.48;4.10;;;4.60;99.90;;;;;;5048841;28;20040;-65
2022/11/27 07:41:20;;;;;;;9.38;3.97;;;4.60;99.90;;;;;;5049290;28;20491;-65
2022/11/27 07:43:46;;;;;;;15.05;4.57;;;4.60;99.90;;;;;;5048015;28;20048;-65
2022/11/27 07:46:18;;;;;;;12.70;4.22;;;4.60;99.90;;;;;;5067056;28;20063;-65
2022/11/27 07:48:44;;;;;;;16.10;5.38;;;4.60;99.90;;;;;;5048989;28;20032;-65
2022/11/27 07:51:12;;;;;;;12.88;3.72;;;4.60;99.90;;;;;;5049125;28;20571;-65
2022/11/27 07:53:40;;;;;;;14.30;4.15;;;4.60;99.90;;;;;;5067385;28;20048;-65
2022/11/27 07:56:07;;;;;;;9.65;4.03;;;4.70;99.90;;;;;;5065839;28;20119;-65
2022/11/27 07:58:33;;;;;;;15.80;4.90;;;4.70;99.90;;;;;;5049104;28;20048;-65
2022/11/27 08:01:00;;;;;;;16.60;6.65;;;4.70;99.90;;;;;;5065573;28;20040;-65
2022/11/27 08:03:25;;;;;;;11.68;4.13;;;4.80;99.90;;;;;;5067332;28;20367;-65
2022/11/27 08:05:51;;;;;;;11.43;4.30;;;4.80;99.90;;;;;;5065644;28;20101;-65
2022/11/27 08:08:17;;;;;;;15.50;4.70;;;4.80;99.90;;;;;;5067363;28;20037;-65
2022/11/27 08:10:43;;;;;;;12.00;4.03;;;4.90;99.90;;;;;;5064990;28;20094;-65
2022/11/27 08:13:09;;;;;;;11.27;4.95;;;4.90;99.90;;;;;;5064971;28;20040;-65
2022/11/27 08:15:36;;;;;;;12.38;4.85;;;4.90;99.90;;;;;;5065947;28;20037;-65
2022/11/27 08:18:01;;;;;;;12.45;4.35;;;5.00;99.90;;;;;;5061083;28;20087;-65
2022/11/27 08:20:28;;;;;;;12.88;4.82;;;5.00;99.90;;;;;;5052654;28;20048;-65
2022/11/27 08:22:53;;;;;;;10.95;3.95;;;5.00;99.90;;;;;;5067022;28;20606;-65
2022/11/27 08:25:20;;;;;;;9.80;4.00;;;5.10;99.90;;;;;;5051049;28;20610;-65
2022/11/27 08:27:47;;;;;;;10.13;4.07;;;5.10;99.90;;;;;;5066900;28;20047;-65
2022/11/27 08:30:14;;;;;;;15.60;4.35;;;5.10;99.90;;;;;;5067429;28;20498;-65
2022/11/27 08:32:41;;;;;;;13.38;4.60;;;5.20;99.90;;;;;;5066203;28;20576;-65
2022/11/27 08:35:08;;;;;;;11.40;4.32;;;5.20;99.90;;;;;;5054928;28;20051;-65
2022/11/27 08:37:35;;;;;;;10.68;3.78;;;5.20;99.90;;;;;;5066819;28;20049;-65
2022/11/27 08:40:02;;;;;;;17.60;4.50;;;5.20;99.90;;;;;;5067164;28;20044;-65
2022/11/27 08:42:28;;;;;;;13.70;4.63;;;5.20;99.90;;;;;;5070979;28;20099;-65
2022/11/27 08:44:54;;;;;;;9.32;3.95;;;5.20;99.90;;;;;;5060395;28;20510;-65
2022/11/27 08:47:20;;;;;;;16.77;4.57;;;5.30;99.90;;;;;;5070179;28;20083;-65
2022/11/27 08:49:46;;;;;;;15.32;3.88;;;5.30;99.90;;;;;;5067679;28;20068;-65
2022/11/27 08:52:12;;;;;;;12.02;4.30;;;5.30;99.90;;;;;;5069399;28;20037;-65
2022/11/27 08:54:39;;;;;;;16.02;4.97;;;5.30;99.90;;;;;;5064915;28;20048;-65
2022/11/27 08:57:04;;;;;;;18.70;5.13;;;5.30;99.90;;;;;;5068002;28;20509;-65
2022/11/27 08:59:33;;;;;;;11.15;4.78;;;5.30;99.90;;;;;;5070312;28;20508;-65
2022/11/27 09:01:59;;;;;;;10.00;4.30;;;5.30;99.90;;;;;;5068871;28;20044;-65
2022/11/27 09:04:25;;;;;;;16.17;4.45;;;5.30;99.90;;;;;;5070365;28;20048;-65
2022/11/27 09:06:50;;;;;;;8.10;4.07;;;5.30;99.90;;;;;;5051641;28;20547;-65
2022/11/27 09:09:16;;;;;;;17.50;4.85;;;5.30;99.90;;;;;;5051308;28;20399;-65
2022/11/27 09:11:44;;;;;;;12.73;4.65;;;5.30;99.90;;;;;;5070283;28;20052;-65
2022/11/27 09:14:10;;;;;;;14.07;4.13;;;5.30;99.90;;;;;;5068952;28;20041;-65
2022/11/27 09:16:36;;;;;;;9.18;4.32;;;5.40;99.90;;;;;;5044966;28;20033;-65
2022/11/27 09:19:02;;;;;;;16.33;5.13;;;5.40;99.90;;;;;;5051062;28;20106;-65
2022/11/27 09:21:29;;;;;;;11.43;4.22;;;5.40;99.90;;;;;;5068615;28;20047;-65
2022/11/27 09:23:57;;;;;;;11.30;4.25;;;5.40;99.90;;;;;;5061398;28;20051;-65
2022/11/27 09:26:24;;;;;;;12.30;4.63;;;5.40;99.90;;;;;;5069245;28;20051;-65
2022/11/27 09:28:51;;;;;;;12.38;4.70;;;5.50;99.90;;;;;;5068234;28;20056;-66
2022/11/27 09:31:18;;;;;;;12.13;4.72;;;5.50;99.90;;;;;;5064854;28;20097;-65
2022/11/27 09:33:44;;;;;;;8.23;4.25;;;5.60;99.90;;;;;;5051166;28;20029;-65
2022/11/27 09:36:16;;;;;;;11.98;4.90;;;5.60;99.90;;;;;;5062036;28;20041;-65
2022/11/27 09:38:43;;;;;;;13.48;4.60;;;5.60;99.90;;;;;;5065927;28;20528;-66
2022/11/27 09:41:18;;;;;;;9.48;4.00;;;5.70;99.90;;;;;;5045374;28;20067;-66
2022/11/27 09:43:51;;;;;;;5.57;3.72;;;5.70;99.90;;;;;;5047981;28;20040;-66
2022/11/27 09:46:28;;;;;;;11.07;4.43;;;5.70;99.90;;;;;;5064345;28;20047;-65
2022/11/27 09:48:56;;;;;;;10.35;4.03;;;5.80;99.90;;;;;;5063812;28;20037;-65
2022/11/27 09:51:30;;;;;;;16.00;5.18;;;5.80;99.90;;;;;;5068897;28;20512;-65
2022/11/27 09:54:21;;;;;;;13.38;4.05;;;5.80;99.90;;;;;;5048776;28;20083;-65
2022/11/27 09:56:48;;;;;;;;;;;5.80;99.90;;;;;;5050445;28;20044;-65
2022/11/27 09:59:18;;;;;;;7.20;3.70;;;5.80;99.90;;;;;;5069235;28;20011;-65
2022/11/27 10:01:45;;;;;;;11.57;4.65;;;5.90;99.90;;;;;;5048854;28;20742;-66
2022/11/27 10:04:13;;;;;;;10.43;4.60;;;5.80;99.90;;;;;;5051718;28;20549;-65
2022/11/27 10:07:12;;;;;;;11.38;4.30;;;5.80;99.90;;;;;;5049656;28;20397;-65
2022/11/27 10:09:37;;;;;;;11.88;4.65;;;5.80;99.90;;;;;;4995265;28;20083;-65
2022/11/27 10:12:47;;;;;;;10.55;4.45;;;5.90;99.90;;;;;;5068213;28;20080;-65
2022/11/27 10:15:24;;;;;;;9.07;3.85;;;5.90;99.90;;;;;;5046755;28;20048;-65
2022/11/27 10:17:56;;;;;;;9.52;4.43;;;5.90;99.90;;;;;;5067692;28;20052;-66
2022/11/27 10:20:45;;;;;;;9.85;4.28;;;5.90;99.90;;;;;;5049736;28;20409;-65
2022/11/27 10:23:25;;;;;;;13.18;4.95;;;5.90;99.90;;;;;;5066723;28;20048;-66
2022/11/27 10:25:58;;;;;;;12.82;5.00;;;5.90;99.90;;;;;;5049730;28;20446;-66
2022/11/27 10:29:01;;;;;;;8.10;4.18;;;5.90;99.90;;;;;;5066024;28;20530;-66
2022/11/27 10:31:35;;;;;;;7.97;4.63;;;5.90;99.90;;;;;;5047972;28;20123;-66
2022/11/27 10:34:18;;;;;;;12.50;4.95;;;5.90;99.90;;;;;;5068060;28;20032;-66
2022/11/27 10:36:48;;;;;;;8.57;4.45;;;5.90;99.90;;;;;;5058386;28;20124;-66
2022/11/27 10:39:44;;;;;;;15.15;5.75;;;5.80;99.90;;;;;;5024504;28;20398;-66
2022/11/27 10:42:30;;;;;;;10.20;4.55;;;5.80;99.90;;;;;;5057004;28;20055;-66
2022/11/27 10:45:20;;;;;;;15.07;5.53;;;5.70;99.90;;;;;;5038719;28;20059;-66
2022/11/27 10:47:47;;;;;;;17.55;5.63;;;5.70;99.90;;;;;;5064492;28;20043;-66
2022/11/27 10:50:18;;;;;;;11.68;4.97;;;5.70;99.90;;;;;;5035589;28;20044;-66
2022/11/27 10:53:14;;;;;;;10.82;4.93;;;5.70;99.90;;;;;;5025768;28;20493;-66
2022/11/27 10:55:59;;;;;;;11.00;4.85;;;5.70;99.90;;;;;;5059406;28;20059;-66
2022/11/27 10:58:58;;;;;;;10.98;4.70;;;5.70;99.90;;;;;;5055742;28;20523;-66
2022/11/27 11:01:28;;;;;;;8.90;5.28;;;5.70;99.90;;;;;;5023967;28;20105;-66
2022/11/27 11:04:05;;;;;;;13.95;5.47;;;5.70;99.90;;;;;;5046985;28;20197;-66
2022/11/27 11:06:36;;;;;;;8.25;4.47;;;5.60;99.90;;;;;;5082422;28;20092;-66
2022/11/27 11:09:13;;;;;;;16.70;5.20;;;5.70;99.90;;;;;;5050074;28;20079;-66
2022/11/27 11:11:40;;;;;;;12.20;4.97;;;5.60;99.90;;;;;;5015339;28;20537;-67
2022/11/27 11:14:23;;;;;;;11.82;4.43;;;5.60;99.90;;;;;;5047909;28;20048;-66
2022/11/27 11:16:50;;;;;;;13.23;4.85;;;5.60;99.90;;;;;;5018879;28;20040;-66
2022/11/27 11:19:23;;;;;;;8.88;3.95;;;5.60;99.90;;;;;;5038981;28;20059;-67
2022/11/27 11:21:49;;;;;;;13.20;4.72;;;5.60;99.90;;;;;;5039454;28;20053;-67
2022/11/27 11:24:38;;;;;;;6.72;4.80;;;5.60;99.90;;;;;;5037394;28;20059;-67
2022/11/27 11:27:14;;;;;;;12.82;4.00;;;5.60;99.90;;;;;;5057992;28;20132;-67
2022/11/27 11:29:58;;;;;;;9.65;4.18;;;5.60;99.90;;;;;;5040349;28;20097;-66
2022/11/27 11:32:43;;;;;;;10.57;4.43;;;5.60;99.90;;;;;;5040316;28;20061;-67
2022/11/27 11:35:27;;;;;;;12.68;5.00;;;5.60;99.90;;;;;;5043157;28;20080;-67
2022/11/27 11:37:54;;;;;;;15.85;4.93;;;5.60;99.90;;;;;;5053421;28;20048;-66
2022/11/27 11:40:36;;;;;;;10.20;4.68;;;5.70;99.90;;;;;;5039993;28;20045;-67
2022/11/27 11:43:05;;;;;;;23.30;9.50;;;5.70;99.90;;;;;;5074916;28;20083;-67
2022/11/27 11:45:33;;;;;;;10.07;3.97;;;5.70;99.90;;;;;;5033577;28;20072;-67
2022/11/27 11:48:01;;;;;;;16.13;4.65;;;5.70;99.90;;;;;;5055282;28;20052;-67
2022/11/27 11:50:47;;;;;;;9.10;3.97;;;5.70;99.90;;;;;;5037256;28;20516;-67
2022/11/27 11:53:33;;;;;;;8.95;3.97;;;5.70;99.90;;;;;;5037268;28;20140;-67
2022/11/27 11:56:30;;;;;;;11.77;3.78;;;5.70;99.90;;;;;;5043928;28;20501;-66
2022/11/27 11:58:57;;;;;;;7.82;3.53;;;5.70;99.90;;;;;;5038192;28;20059;-66
2022/11/27 12:01:29;;;;;;;12.82;4.90;;;5.70;99.90;;;;;;5055547;28;20074;-67
2022/11/27 12:04:16;;;;;;;10.10;4.30;;;5.70;99.90;;;;;;5057717;28;20068;-66
2022/11/27 12:07:06;;;;;;;9.43;4.70;;;5.70;99.90;;;;;;5038183;28;20044;-67
2022/11/27 12:10:00;;;;;;;6.38;4.05;;;5.70;99.90;;;;;;5059570;28;20052;-67
2022/11/27 12:12:39;;;;;;;12.70;5.00;;;5.80;99.90;;;;;;5039629;28;20041;-66
2022/11/27 12:15:15;;;;;;;9.48;4.93;;;5.80;99.90;;;;;;5057693;28;20040;-67
2022/11/27 12:18:00;;;;;;;10.20;5.40;;;5.80;99.90;;;;;;5037270;28;20057;-66
2022/11/27 12:20:49;;;;;;;9.13;3.85;;;5.80;99.90;;;;;;5052443;28;20036;-66
2022/11/27 12:23:31;;;;;;;16.23;4.57;;;5.80;99.90;;;;;;5056497;28;20491;-66
2022/11/27 12:26:08;;;;;;;7.15;4.13;;;5.80;99.90;;;;;;5038303;28;20040;-66
2022/11/27 12:28:56;;;;;;;6.88;3.67;;;5.80;99.90;;;;;;5053831;28;20123;-66
2022/11/27 12:31:27;;;;;;;10.18;5.18;;;5.80;99.90;;;;;;5027030;28;20037;-65
2022/11/27 12:34:17;;;;;;;9.75;4.53;;;5.80;99.90;;;;;;5039042;28;20059;-66
2022/11/27 12:36:48;;;;;;;10.50;3.90;;;5.90;99.90;;;;;;5058495;28;20036;-65
2022/11/27 12:39:28;;;;;;;11.98;4.22;;;5.90;99.90;;;;;;5056825;28;20382;-66
2022/11/27 12:42:00;;;;;;;13.60;5.00;;;6.00;99.90;;;;;;5055713;28;20037;-66
2022/11/27 12:44:46;;;;;;;7.68;3.67;;;6.00;99.90;;;;;;5057460;28;20052;-65
2022/11/27 12:47:24;;;;;;;13.10;5.07;;;6.00;99.90;;;;;;5055936;28;20044;-66
2022/11/27 12:49:59;;;;;;;7.63;4.43;;;6.00;99.90;;;;;;5054590;28;20079;-67
2022/11/27 12:52:33;;;;;;;9.82;4.05;;;6.00;99.90;;;;;;5055094;28;20425;-66
2022/11/27 12:55:14;;;;;;;10.20;4.72;;;6.00;99.90;;;;;;5036830;28;20049;-66
2022/11/27 12:57:49;;;;;;;3.85;2.67;;;6.00;99.90;;;;;;5037900;28;20480;-66
2022/11/27 13:00:29;;;;;;;12.52;5.50;;;6.00;99.90;;;;;;5057308;28;20504;-66
2022/11/27 13:03:12;;;;;;;12.65;5.18;;;6.00;99.90;;;;;;5053748;28;20041;-66
2022/11/27 13:05:57;;;;;;;12.07;5.07;;;6.00;99.90;;;;;;5022670;28;20559;-66
2022/11/27 13:08:29;;;;;;;4.40;3.47;;;6.10;99.90;;;;;;5038615;28;20050;-66
2022/11/27 13:11:04;;;;;;;7.90;4.57;;;6.10;99.90;;;;;;5053600;28;20036;-66